createdAt,value
2018-01-17T00:00:52.016Z,7.20
2018-01-17T00:03:20.510Z,6.67
2018-01-17T00:05:48.885Z,8.57
2018-01-17T00:08:17.269Z,6.67
2018-01-17T00:10:45.663Z,6.97
2018-01-17T00:13:14.041Z,6.70
2018-01-17T00:15:42.808Z,7.00
2018-01-17T00:18:11.297Z,7.77
2018-01-17T00:20:39.661Z,6.60
2018-01-17T00:23:08.150Z,8.03
2018-01-17T00:25:36.522Z,6.83
2018-01-17T00:28:04.910Z,7.10
2018-01-17T00:30:33.280Z,7.40
2018-01-17T00:33:01.652Z,6.90
2018-01-17T00:35:30.160Z,6.73
2018-01-17T00:37:58.549Z,8.27
2018-01-17T00:40:27.333Z,7.30
2018-01-17T00:42:55.788Z,8.33
2018-01-17T00:45:24.192Z,7.20
2018-01-17T00:47:52.557Z,9.03
2018-01-17T00:50:21.060Z,6.90
2018-01-17T00:52:49.915Z,6.27
2018-01-17T00:55:18.290Z,7.43
2018-01-17T00:57:46.662Z,8.10
2018-01-17T01:00:15.175Z,7.80
2018-01-17T01:02:43.654Z,8.17
2018-01-17T01:05:12.029Z,6.93
2018-01-17T01:07:40.392Z,6.57
2018-01-17T01:10:08.751Z,7.43
2018-01-17T01:12:37.257Z,7.27
2018-01-17T01:15:05.612Z,7.53
2018-01-17T01:17:34.003Z,7.20
2018-01-17T01:20:02.372Z,8.03
2018-01-17T01:22:30.737Z,8.47
2018-01-17T01:24:59.112Z,8.53
2018-01-17T01:27:27.486Z,8.40
2018-01-17T01:29:55.907Z,7.93
2018-01-17T01:32:24.275Z,8.40
2018-01-17T01:34:52.670Z,8.37
2018-01-17T01:37:21.043Z,7.50
2018-01-17T01:39:49.442Z,7.00
2018-01-17T01:42:17.909Z,7.40
2018-01-17T01:44:46.279Z,7.60
2018-01-17T01:47:14.634Z,7.77
2018-01-17T01:49:43.058Z,7.70
2018-01-17T01:52:11.540Z,7.07
2018-01-17T01:54:39.952Z,7.27
2018-01-17T01:57:08.385Z,7.50
2018-01-17T01:59:36.798Z,6.50
2018-01-17T02:02:05.556Z,6.50
2018-01-17T02:04:33.927Z,6.90
2018-01-17T02:07:02.410Z,7.10
2018-01-17T02:09:30.787Z,7.00
2018-01-17T02:11:59.168Z,7.53
2018-01-17T02:14:27.561Z,7.70
2018-01-17T02:16:55.931Z,8.20
2018-01-17T02:19:24.412Z,6.77
2018-01-17T02:21:52.782Z,7.73
2018-01-17T02:24:21.164Z,8.60
2018-01-17T02:26:49.557Z,10.70
2018-01-17T02:29:17.909Z,7.10
2018-01-17T02:31:46.314Z,8.17
2018-01-17T02:34:14.786Z,9.13
2018-01-17T02:36:43.156Z,7.40
2018-01-17T02:39:11.543Z,8.30
2018-01-17T02:41:39.909Z,7.80
2018-01-17T02:44:08.273Z,9.43
2018-01-17T02:46:36.624Z,9.53
2018-01-17T02:49:05.136Z,8.33
2018-01-17T02:51:33.511Z,8.67
2018-01-17T02:54:01.875Z,8.97
2018-01-17T02:56:30.239Z,9.10
2018-01-17T02:58:58.616Z,9.13
2018-01-17T03:01:27.056Z,8.77
2018-01-17T03:03:55.435Z,8.83
2018-01-17T03:06:23.815Z,7.97
2018-01-17T03:08:52.311Z,8.33
2018-01-17T03:11:20.673Z,8.00
2018-01-17T03:13:49.154Z,7.23
2018-01-17T03:16:17.517Z,7.80
2018-01-17T03:18:45.912Z,7.43
2018-01-17T03:21:14.398Z,7.43
2018-01-17T03:23:43.201Z,6.97
2018-01-17T03:26:11.995Z,6.93
2018-01-17T03:28:40.366Z,6.73
2018-01-17T03:31:08.735Z,7.30
2018-01-17T03:33:37.124Z,7.90
2018-01-17T03:36:05.868Z,8.80
2018-01-17T03:38:34.358Z,7.70
2018-01-17T03:41:02.706Z,8.43
2018-01-17T03:43:31.083Z,8.10
2018-01-17T03:45:59.463Z,8.27
2018-01-17T03:48:27.824Z,8.33
2018-01-17T03:50:56.595Z,9.13
2018-01-17T03:53:25.342Z,8.07
2018-01-17T03:55:53.707Z,8.30
2018-01-17T03:58:22.084Z,8.30
2018-01-17T04:00:50.451Z,8.10
2018-01-17T04:03:18.876Z,8.43
2018-01-17T04:05:47.254Z,8.70
2018-01-17T04:08:15.621Z,8.53
2018-01-17T04:10:43.991Z,9.53
2018-01-17T04:13:12.388Z,9.50
2018-01-17T04:15:40.819Z,8.00
2018-01-17T04:18:09.177Z,8.20
2018-01-17T04:20:37.935Z,8.37
2018-01-17T04:23:06.313Z,8.20
2018-01-17T04:25:34.679Z,8.40
2018-01-17T04:28:03.055Z,8.30
2018-01-17T04:30:31.451Z,8.00
2018-01-17T04:32:59.815Z,6.80
2018-01-17T04:35:28.207Z,6.50
2018-01-17T04:37:56.566Z,6.97
2018-01-17T04:40:24.945Z,7.37
2018-01-17T04:42:53.292Z,6.43
2018-01-17T04:45:21.652Z,6.40
2018-01-17T04:47:50.411Z,5.80
2018-01-17T04:50:18.764Z,5.30
2018-01-17T04:52:47.156Z,6.23
2018-01-17T04:55:15.512Z,6.57
2018-01-17T04:57:43.875Z,5.90
2018-01-17T05:00:12.247Z,5.50
2018-01-17T05:02:40.616Z,6.83
2018-01-17T05:05:09.405Z,5.70
2018-01-17T05:07:38.154Z,5.30
2018-01-17T05:10:06.573Z,6.00
2018-01-17T05:12:35.354Z,5.63
2018-01-17T05:15:04.111Z,5.97
2018-01-17T05:17:32.587Z,5.80
2018-01-17T05:20:00.974Z,5.50
2018-01-17T05:22:29.347Z,5.07
2018-01-17T05:24:57.707Z,7.20
2018-01-17T05:27:26.067Z,5.73
2018-01-17T05:29:54.562Z,6.07
2018-01-17T05:32:22.967Z,5.67
2018-01-17T05:34:51.315Z,6.20
2018-01-17T05:37:19.695Z,6.20
2018-01-17T05:39:48.055Z,4.77
2018-01-17T05:42:16.407Z,6.40
2018-01-17T05:44:45.167Z,8.77
2018-01-17T05:47:13.551Z,6.47
2018-01-17T05:49:41.926Z,6.33
2018-01-17T05:52:10.300Z,5.10
2018-01-17T05:54:38.685Z,6.53
2018-01-17T05:57:07.047Z,5.53
2018-01-17T05:59:35.409Z,5.47
2018-01-17T06:02:03.867Z,5.50
2018-01-17T06:04:32.386Z,6.37
2018-01-17T06:07:00.750Z,6.20
2018-01-17T06:09:29.167Z,6.30
2018-01-17T06:11:57.539Z,5.60
2018-01-17T06:14:25.935Z,5.10
2018-01-17T06:16:54.293Z,5.43
2018-01-17T06:19:22.647Z,6.13
2018-01-17T06:21:51.019Z,6.27
2018-01-17T06:24:19.437Z,6.00
2018-01-17T06:26:47.916Z,5.80
2018-01-17T06:29:16.280Z,6.20
2018-01-17T06:31:44.647Z,7.53
2018-01-17T06:34:13.052Z,7.30
2018-01-17T06:36:41.408Z,7.53
2018-01-17T06:39:09.799Z,8.63
2018-01-17T06:41:38.150Z,7.60
2018-01-17T06:44:06.568Z,7.17
2018-01-17T06:46:34.950Z,7.13
2018-01-17T06:49:03.316Z,7.03
2018-01-17T06:51:31.695Z,7.33
2018-01-17T06:54:00.067Z,7.13
2018-01-17T06:56:28.467Z,8.57
2018-01-17T06:58:56.849Z,7.53
2018-01-17T07:01:25.369Z,7.60
2018-01-17T07:03:53.770Z,8.60
2018-01-17T07:06:22.147Z,7.97
2018-01-17T07:08:50.520Z,8.40
2018-01-17T07:11:18.918Z,9.50
2018-01-17T07:13:58.545Z,9.57
2018-01-17T07:16:26.919Z,7.67
2018-01-17T07:18:55.270Z,9.20
2018-01-17T07:21:24.035Z,8.57
2018-01-17T07:23:52.526Z,8.40
2018-01-17T07:26:21.001Z,9.20
2018-01-17T07:28:49.463Z,8.00
2018-01-17T07:31:17.999Z,9.80
2018-01-17T07:33:46.376Z,8.10
2018-01-17T07:36:14.755Z,9.27
2018-01-17T07:38:43.202Z,8.67
2018-01-17T07:41:11.834Z,9.30
2018-01-17T07:43:40.199Z,9.30
2018-01-17T07:46:08.549Z,8.47
2018-01-17T07:48:37.010Z,8.50
2018-01-17T07:51:05.382Z,9.20
2018-01-17T07:53:33.904Z,9.73
2018-01-17T07:56:02.757Z,9.10
2018-01-17T07:58:31.147Z,9.70
2018-01-17T08:00:59.622Z,9.80
2018-01-17T08:03:28.016Z,10.43
2018-01-17T08:05:56.497Z,10.10
2018-01-17T08:08:24.838Z,11.60
2018-01-17T08:10:53.199Z,12.07
2018-01-17T08:13:21.587Z,10.50
2018-01-17T08:15:49.954Z,12.70
2018-01-17T08:18:18.344Z,11.60
2018-01-17T08:20:46.728Z,10.60
2018-01-17T08:23:15.091Z,10.40
2018-01-17T08:25:43.486Z,12.03
2018-01-17T08:28:11.860Z,11.40
2018-01-17T08:30:40.272Z,11.13
2018-01-17T08:33:08.643Z,11.10
2018-01-17T08:35:37.012Z,12.40
2018-01-17T08:38:05.399Z,13.33
2018-01-17T08:40:33.757Z,10.93
2018-01-17T08:43:02.183Z,11.47
2018-01-17T08:45:30.640Z,12.63
2018-01-17T08:47:59.017Z,15.43
2018-01-17T08:50:27.396Z,14.10
2018-01-17T08:52:55.756Z,14.67
2018-01-17T08:55:24.135Z,13.70
2018-01-17T08:57:53.457Z,13.77
2018-01-17T09:00:21.851Z,15.20
2018-01-17T09:02:50.231Z,15.07
2018-01-17T09:05:18.587Z,15.37
2018-01-17T09:07:46.991Z,13.80
2018-01-17T09:10:15.355Z,15.40
2018-01-17T09:12:43.720Z,12.83
2018-01-17T09:15:12.100Z,14.20
2018-01-17T09:17:40.461Z,14.90
2018-01-17T09:20:08.839Z,15.60
2018-01-17T09:22:37.210Z,16.67
2018-01-17T09:25:05.629Z,15.63
2018-01-17T09:27:34.128Z,19.87
2018-01-17T09:30:02.596Z,16.40
2018-01-17T09:32:31.063Z,15.40
2018-01-17T09:34:59.488Z,15.63
2018-01-17T09:37:27.939Z,14.90
2018-01-17T09:39:56.744Z,13.90
2018-01-17T09:42:25.524Z,13.97
2018-01-17T09:44:53.915Z,12.20
2018-01-17T09:47:22.676Z,18.80
2018-01-17T09:49:51.151Z,12.17
2018-01-17T09:52:20.351Z,10.63
2018-01-17T09:54:48.727Z,11.70
2018-01-17T09:57:17.215Z,10.57
2018-01-17T09:59:45.579Z,10.10
2018-01-17T10:02:13.998Z,10.60
2018-01-17T10:04:42.868Z,11.57
2018-01-17T10:07:11.235Z,9.70
2018-01-17T10:09:39.798Z,9.70
2018-01-17T10:12:14.706Z,10.73
2018-01-17T10:14:43.089Z,10.30
2018-01-17T10:17:11.450Z,11.17
2018-01-17T10:19:40.247Z,10.20
2018-01-17T10:22:08.671Z,9.97
2018-01-17T10:24:37.041Z,10.57
2018-01-17T10:27:05.416Z,9.17
2018-01-17T10:29:35.764Z,8.80
2018-01-17T10:32:04.146Z,8.40
2018-01-17T10:34:32.525Z,8.73
2018-01-17T10:37:00.903Z,7.53
2018-01-17T10:39:29.381Z,7.20
2018-01-17T10:41:57.751Z,8.20
2018-01-17T10:44:26.139Z,8.43
2018-01-17T10:46:54.506Z,6.97
2018-01-17T10:49:22.878Z,7.30
2018-01-17T10:51:51.253Z,10.00
2018-01-17T10:54:19.657Z,13.50
2018-01-17T10:56:48.031Z,16.70
2018-01-17T10:59:17.189Z,15.80
2018-01-17T11:01:45.551Z,13.57
2018-01-17T11:04:14.343Z,13.20
2018-01-17T11:06:43.185Z,13.77
2018-01-17T11:09:11.539Z,13.17
2018-01-17T11:11:39.939Z,13.43
2018-01-17T11:14:08.304Z,12.00
2018-01-17T11:16:36.700Z,10.00
2018-01-17T11:19:05.059Z,8.97
2018-01-17T11:21:33.464Z,7.70
2018-01-17T11:24:01.832Z,5.77
2018-01-17T11:26:30.172Z,5.80
2018-01-17T11:28:58.588Z,5.90
2018-01-17T11:31:26.944Z,10.47
2018-01-17T11:33:55.316Z,7.73
2018-01-17T11:36:23.675Z,5.80
2018-01-17T11:38:52.424Z,5.47
2018-01-17T11:41:20.792Z,5.80
2018-01-17T11:43:49.816Z,5.20
2018-01-17T11:46:18.277Z,5.10
2018-01-17T11:48:46.656Z,5.03
2018-01-17T11:51:15.059Z,5.40
2018-01-17T11:53:43.822Z,6.63
2018-01-17T11:56:12.947Z,6.47
2018-01-17T11:58:41.845Z,5.30
2018-01-17T12:01:10.616Z,5.10
2018-01-17T12:03:38.963Z,5.43
2018-01-17T12:06:07.347Z,5.80
2018-01-17T12:08:35.703Z,7.00
2018-01-17T12:11:04.055Z,6.13
2018-01-17T12:13:32.418Z,6.30
2018-01-17T12:16:00.796Z,6.80
2018-01-17T12:18:29.572Z,6.53
2018-01-17T12:20:57.931Z,6.30
2018-01-17T12:23:26.279Z,6.63
2018-01-17T12:25:54.688Z,6.23
2018-01-17T12:28:23.055Z,6.27
2018-01-17T12:30:51.426Z,6.30
2018-01-17T12:33:19.788Z,7.77
2018-01-17T12:35:48.235Z,6.80
2018-01-17T12:38:16.994Z,6.67
2018-01-17T12:40:45.770Z,7.33
2018-01-17T12:43:14.243Z,7.80
2018-01-17T12:48:17.276Z,8.10
2018-01-17T12:50:45.631Z,7.83
2018-01-17T12:53:13.983Z,8.50
2018-01-17T12:55:42.413Z,8.57
2018-01-17T12:58:10.775Z,8.70
2018-01-17T13:00:39.160Z,8.13
2018-01-17T13:03:07.516Z,8.43
2018-01-17T13:05:35.910Z,8.47
2018-01-17T13:08:04.270Z,9.40
2018-01-17T13:10:32.704Z,9.30
2018-01-17T13:13:01.153Z,10.03
2018-01-17T13:15:29.521Z,9.20
2018-01-17T13:17:57.891Z,10.77
2018-01-17T13:20:26.268Z,9.47
2018-01-17T13:22:54.662Z,9.47
2018-01-17T13:25:23.040Z,11.00
2018-01-17T13:27:51.493Z,10.00
2018-01-17T13:30:19.863Z,11.37
2018-01-17T13:32:48.316Z,11.50
2018-01-17T13:35:17.087Z,11.30
2018-01-17T13:37:45.463Z,11.80
2018-01-17T13:40:13.830Z,11.47
2018-01-17T13:42:42.219Z,12.37
2018-01-17T13:45:10.575Z,12.53
2018-01-17T13:47:38.956Z,13.20
2018-01-17T13:50:07.343Z,14.47
2018-01-17T13:52:35.701Z,12.60
2018-01-17T13:55:04.063Z,14.00
2018-01-17T13:57:32.586Z,12.43
2018-01-17T14:00:00.940Z,12.13
2018-01-17T14:02:29.351Z,12.30
2018-01-17T14:04:57.720Z,11.90
2018-01-17T14:07:26.112Z,12.53
2018-01-17T14:09:54.583Z,9.90
2018-01-17T14:12:22.969Z,9.43
2018-01-17T14:14:51.378Z,9.50
2018-01-17T14:17:20.133Z,12.60
2018-01-17T14:19:48.515Z,8.93
2018-01-17T14:22:16.995Z,8.93
2018-01-17T14:24:45.365Z,8.43
2018-01-17T14:27:13.760Z,8.10
2018-01-17T14:29:42.119Z,7.73
2018-01-17T14:32:10.476Z,7.37
2018-01-17T14:34:38.846Z,7.93
2018-01-17T14:37:07.245Z,7.47
2018-01-17T14:39:35.623Z,7.00
2018-01-17T14:42:03.989Z,6.50
2018-01-17T14:44:32.356Z,7.30
2018-01-17T14:47:00.734Z,6.10
2018-01-17T14:49:29.110Z,5.67
2018-01-17T14:51:57.546Z,5.37
2018-01-17T14:54:25.887Z,5.63
2018-01-17T14:56:54.248Z,4.97
2018-01-17T14:59:22.672Z,5.20
2018-01-17T15:01:51.022Z,4.30
2018-01-17T15:04:19.488Z,4.80
2018-01-17T15:06:47.858Z,4.60
2018-01-17T15:09:16.281Z,4.10
2018-01-17T15:11:44.668Z,4.67
2018-01-17T15:14:13.036Z,3.93
2018-01-17T15:16:41.414Z,4.20
2018-01-17T15:19:09.763Z,3.67
2018-01-17T15:21:38.144Z,4.20
2018-01-17T15:24:06.498Z,3.67
2018-01-17T15:26:35.322Z,4.40
2018-01-17T15:29:03.705Z,3.73
2018-01-17T15:31:32.064Z,3.70
2018-01-17T15:34:00.484Z,4.17
2018-01-17T15:36:28.860Z,4.20
2018-01-17T15:38:57.252Z,4.23
2018-01-17T15:41:25.661Z,4.80
2018-01-17T15:43:54.099Z,5.00
2018-01-17T15:46:22.462Z,4.47
2018-01-17T15:48:50.823Z,4.37
2018-01-17T15:51:21.800Z,5.33
2018-01-17T15:53:50.183Z,4.07
2018-01-17T15:56:18.552Z,4.63
2018-01-17T15:58:46.955Z,4.50
2018-01-17T16:01:15.331Z,4.33
2018-01-17T16:03:43.704Z,5.10
2018-01-17T16:06:12.083Z,4.40
2018-01-17T16:08:40.440Z,5.00
2018-01-17T16:11:08.839Z,3.67
2018-01-17T16:13:37.211Z,4.90
2018-01-17T16:16:05.581Z,4.63
2018-01-17T16:18:33.966Z,4.23
2018-01-17T16:21:02.350Z,5.10
2018-01-17T16:23:30.696Z,5.90
2018-01-17T16:25:59.087Z,4.77
2018-01-17T16:28:27.438Z,5.03
2018-01-17T16:30:55.832Z,6.30
2018-01-17T16:33:24.190Z,5.43
2018-01-17T16:35:53.408Z,6.37
2018-01-17T16:38:21.781Z,7.10
2018-01-17T16:40:50.147Z,4.93
2018-01-17T16:43:18.524Z,5.83
2018-01-17T16:45:46.879Z,5.90
2018-01-17T16:48:15.635Z,5.87
2018-01-17T16:50:44.016Z,5.20
2018-01-17T16:53:12.405Z,4.60
2018-01-17T16:55:40.827Z,5.27
2018-01-17T16:58:09.193Z,5.50
2018-01-17T17:00:37.994Z,5.33
2018-01-17T17:03:06.426Z,5.47
2018-01-17T17:05:35.310Z,4.00
2018-01-17T17:08:03.714Z,4.40
2018-01-17T17:10:32.069Z,4.13
2018-01-17T17:13:00.476Z,4.20
2018-01-17T17:15:29.264Z,4.73
2018-01-17T17:17:58.025Z,4.50
2018-01-17T17:20:26.496Z,4.53
2018-01-17T17:22:54.876Z,4.00
2018-01-17T17:25:23.276Z,4.37
2018-01-17T17:27:51.741Z,3.50
2018-01-17T17:30:20.132Z,3.10
2018-01-17T17:32:48.504Z,3.70
2018-01-17T17:35:16.859Z,4.03
2018-01-17T17:38:04.061Z,3.47
2018-01-17T17:40:32.473Z,3.90
2018-01-17T17:43:00.841Z,3.93
2018-01-17T17:45:29.239Z,3.03
2018-01-17T17:47:57.599Z,3.07
2018-01-17T17:50:25.998Z,4.27
2018-01-17T17:52:54.356Z,3.73
2018-01-17T17:55:22.744Z,3.67
2018-01-17T17:57:51.125Z,4.20
2018-01-17T18:00:19.490Z,3.57
2018-01-17T18:02:47.860Z,4.10
2018-01-17T18:05:16.213Z,4.13
2018-01-17T18:07:44.587Z,3.83
2018-01-17T18:10:13.394Z,4.30
2018-01-17T18:12:41.756Z,3.60
2018-01-17T18:15:10.520Z,3.40
2018-01-17T18:17:38.970Z,3.87
2018-01-17T18:20:07.324Z,4.03
2018-01-17T18:22:35.692Z,3.90
2018-01-17T18:25:04.068Z,3.70
2018-01-17T18:27:32.436Z,4.50
2018-01-17T18:30:01.188Z,3.90
2018-01-17T18:32:29.545Z,5.53
2018-01-17T18:34:57.904Z,4.97
2018-01-17T18:37:26.257Z,4.70
2018-01-17T18:39:55.026Z,4.80
2018-01-17T18:42:23.384Z,4.53
2018-01-17T18:44:51.763Z,5.27
2018-01-17T18:47:20.126Z,5.70
2018-01-17T18:49:48.474Z,6.40
2018-01-17T18:52:16.839Z,6.60
2018-01-17T18:54:45.603Z,6.53
2018-01-17T18:57:13.952Z,6.83
2018-01-17T18:59:42.312Z,8.20
2018-01-17T19:02:10.695Z,6.87
2018-01-17T19:04:39.078Z,7.70
2018-01-17T19:07:07.477Z,7.77
2018-01-17T19:09:35.860Z,8.40
2018-01-17T19:12:04.240Z,8.37
2018-01-17T19:14:32.620Z,8.97
2018-01-17T19:17:01.027Z,8.80
2018-01-17T19:19:29.883Z,9.40
2018-01-17T19:21:58.248Z,9.30
2018-01-17T19:24:26.639Z,9.83
2018-01-17T19:26:55.023Z,11.20
2018-01-17T19:29:23.515Z,10.90
2018-01-17T19:31:51.998Z,11.67
2018-01-17T19:34:20.362Z,11.20
2018-01-17T19:36:48.762Z,10.77
2018-01-17T19:39:17.231Z,11.07
2018-01-17T19:41:45.647Z,11.10
2018-01-17T19:44:14.029Z,10.60
2018-01-17T19:46:42.406Z,12.43
2018-01-17T19:49:10.796Z,10.30
2018-01-17T19:51:39.150Z,9.10
2018-01-17T19:54:07.610Z,9.53
2018-01-17T19:56:37.582Z,11.47
2018-01-17T19:59:05.937Z,9.63
2018-01-17T20:01:34.721Z,9.70
2018-01-17T20:04:03.482Z,9.07
2018-01-17T20:06:31.866Z,10.27
2018-01-17T20:09:00.231Z,10.30
2018-01-17T20:11:28.612Z,10.80
2018-01-17T20:13:57.112Z,10.70
2018-01-17T20:16:25.572Z,10.63
2018-01-17T20:18:54.072Z,10.37
2018-01-17T20:21:22.529Z,9.80
2018-01-17T20:23:50.885Z,10.37
2018-01-17T20:26:19.296Z,9.00
2018-01-17T20:28:47.672Z,10.10
2018-01-17T20:31:16.036Z,10.73
2018-01-17T20:33:44.440Z,9.57
2018-01-17T20:36:12.806Z,9.30
2018-01-17T20:38:41.209Z,10.20
2018-01-17T20:41:30.525Z,9.37
2018-01-17T20:43:58.891Z,9.97
2018-01-17T20:46:27.260Z,8.97
2018-01-17T20:48:55.621Z,8.90
2018-01-17T20:51:24.380Z,8.53
2018-01-17T20:53:52.748Z,9.47
2018-01-17T20:56:21.133Z,8.97
2018-01-17T20:58:51.389Z,8.53
2018-01-17T21:01:20.169Z,9.80
2018-01-17T21:03:48.529Z,8.53
2018-01-17T21:06:16.903Z,8.80
2018-01-17T21:08:45.278Z,8.10
2018-01-17T21:11:13.696Z,7.97
2018-01-17T21:13:42.435Z,7.50
2018-01-17T21:16:10.787Z,8.17
2018-01-17T21:18:39.184Z,7.60
2018-01-17T21:21:07.540Z,7.87
2018-01-17T21:23:35.924Z,6.90
2018-01-17T21:26:04.280Z,7.60
2018-01-17T21:28:32.721Z,8.33
2018-01-17T21:31:01.363Z,7.17
2018-01-17T21:33:29.804Z,6.60
2018-01-17T21:36:02.307Z,8.07
2018-01-17T21:38:30.741Z,7.60
2018-01-17T21:40:59.119Z,8.10
2018-01-17T21:43:33.064Z,7.90
2018-01-17T21:46:01.949Z,9.20
2018-01-17T21:48:30.721Z,8.37
2018-01-17T21:50:59.187Z,7.43
2018-01-17T21:53:27.576Z,7.47
2018-01-17T21:55:55.945Z,8.10
2018-01-17T21:58:24.319Z,7.40
2018-01-17T22:00:52.689Z,7.33
2018-01-17T22:03:21.041Z,7.60
2018-01-17T22:05:49.402Z,7.47
2018-01-17T22:08:17.767Z,8.47
2018-01-17T22:10:46.558Z,9.50
2018-01-17T22:13:24.833Z,8.10
2018-01-17T22:15:53.226Z,6.93
2018-01-17T22:18:21.612Z,7.53
2018-01-17T22:20:49.969Z,7.10
2018-01-17T22:23:18.336Z,8.07
2018-01-17T22:25:46.712Z,7.07
2018-01-17T22:28:15.077Z,6.37
2018-01-17T22:30:43.453Z,7.03
2018-01-17T22:36:26.086Z,5.70
2018-01-17T22:38:54.609Z,5.13
2018-01-17T22:41:22.996Z,7.03
2018-01-17T22:43:51.488Z,5.20
2018-01-17T22:46:19.878Z,5.20
2018-01-17T22:48:48.275Z,5.17
2018-01-17T22:51:16.627Z,5.70
2018-01-17T22:53:45.410Z,5.40
2018-01-17T22:56:13.772Z,5.40
2018-01-17T22:58:42.132Z,5.10
2018-01-17T23:01:10.544Z,5.23
2018-01-17T23:03:38.939Z,6.03
2018-01-17T23:06:07.731Z,4.30
2018-01-17T23:08:36.501Z,5.47
2018-01-17T23:11:06.136Z,4.17
2018-01-17T23:13:34.515Z,4.60
2018-01-17T23:16:02.906Z,4.87
2018-01-17T23:18:31.259Z,3.43
2018-01-17T23:21:00.016Z,3.40
2018-01-17T23:23:28.391Z,2.70
2018-01-17T23:25:56.771Z,3.70
2018-01-17T23:28:25.134Z,3.00
2018-01-17T23:30:54.243Z,2.20
2018-01-17T23:33:22.633Z,2.37
2018-01-17T23:35:51.000Z,1.77
2018-01-17T23:38:19.383Z,2.10
2018-01-17T23:40:47.736Z,2.07
2018-01-17T23:43:16.864Z,1.83
2018-01-17T23:45:45.334Z,2.03
2018-01-17T23:48:13.700Z,2.20
2018-01-17T23:50:42.087Z,2.00
2018-01-17T23:53:10.443Z,2.07
2018-01-17T23:55:38.783Z,2.70
2018-01-17T23:58:07.552Z,2.73
